sensor_id;sensor_type;location;lat;lon;timestamp;P1;durP1;ratioP1;P2;durP2;ratioP2
3293;SDS011;1659;51.470;6.770;2023-12-28T00:01:09;3.47;;;2.90;;
3293;SDS011;1659;51.470;6.770;2023-12-28T00:03:35;3.30;;;3.10;;
3293;SDS011;1659;51.470;6.770;2023-12-28T00:06:04;3.17;;;2.87;;
3293;SDS011;1659;51.470;6.770;2023-12-28T00:08:31;2.97;;;2.70;;
3293;SDS011;1659;51.470;6.770;2023-12-28T00:10:57;4.30;;;3.77;;
3293;SDS011;1659;51.470;6.770;2023-12-28T00:13:24;3.83;;;3.40;;
3293;SDS011;1659;51.470;6.770;2023-12-28T00:15:50;6.13;;;3.40;;
3293;SDS011;1659;51.470;6.770;2023-12-28T00:18:17;11.17;;;3.57;;
3293;SDS011;1659;51.470;6.770;2023-12-28T00:20:43;5.67;;;2.97;;
3293;SDS011;1659;51.470;6.770;2023-12-28T00:23:11;3.30;;;3.00;;
3293;SDS011;1659;51.470;6.770;2023-12-28T00:25:38;3.93;;;3.20;;
3293;SDS011;1659;51.470;6.770;2023-12-28T00:28:04;6.93;;;3.63;;
3293;SDS011;1659;51.470;6.770;2023-12-28T00:30:31;4.87;;;3.20;;
3293;SDS011;1659;51.470;6.770;2023-12-28T00:32:58;4.60;;;3.70;;
3293;SDS011;1659;51.470;6.770;2023-12-28T00:35:25;3.40;;;2.97;;
3293;SDS011;1659;51.470;6.770;2023-12-28T00:37:51;4.03;;;3.07;;
3293;SDS011;1659;51.470;6.770;2023-12-28T00:40:19;4.43;;;3.67;;
3293;SDS011;1659;51.470;6.770;2023-12-28T00:42:47;5.10;;;3.30;;
3293;SDS011;1659;51.470;6.770;2023-12-28T00:45:13;5.37;;;3.40;;
3293;SDS011;1659;51.470;6.770;2023-12-28T00:47:40;5.90;;;3.50;;
3293;SDS011;1659;51.470;6.770;2023-12-28T00:50:08;5.83;;;3.70;;
3293;SDS011;1659;51.470;6.770;2023-12-28T00:52:36;3.63;;;3.13;;
3293;SDS011;1659;51.470;6.770;2023-12-28T00:55:03;4.97;;;3.30;;
3293;SDS011;1659;51.470;6.770;2023-12-28T00:57:32;4.13;;;2.87;;
3293;SDS011;1659;51.470;6.770;2023-12-28T00:59:58;11.00;;;3.63;;
3293;SDS011;1659;51.470;6.770;2023-12-28T01:02:25;2.73;;;2.50;;
3293;SDS011;1659;51.470;6.770;2023-12-28T01:04:51;3.10;;;2.90;;
3293;SDS011;1659;51.470;6.770;2023-12-28T01:07:18;3.83;;;3.17;;
3293;SDS011;1659;51.470;6.770;2023-12-28T01:09:45;2.90;;;2.70;;
3293;SDS011;1659;51.470;6.770;2023-12-28T01:12:11;3.10;;;2.80;;
3293;SDS011;1659;51.470;6.770;2023-12-28T01:14:39;6.50;;;3.57;;
3293;SDS011;1659;51.470;6.770;2023-12-28T01:17:06;5.30;;;3.57;;
3293;SDS011;1659;51.470;6.770;2023-12-28T01:19:32;5.30;;;3.33;;
3293;SDS011;1659;51.470;6.770;2023-12-28T01:21:59;4.63;;;3.10;;
3293;SDS011;1659;51.470;6.770;2023-12-28T01:24:25;3.17;;;2.83;;
3293;SDS011;1659;51.470;6.770;2023-12-28T01:26:52;3.73;;;3.30;;
3293;SDS011;1659;51.470;6.770;2023-12-28T01:29:18;3.10;;;2.80;;
3293;SDS011;1659;51.470;6.770;2023-12-28T01:31:45;4.07;;;3.77;;
3293;SDS011;1659;51.470;6.770;2023-12-28T01:34:12;3.97;;;3.43;;
3293;SDS011;1659;51.470;6.770;2023-12-28T01:36:38;6.70;;;3.37;;
3293;SDS011;1659;51.470;6.770;2023-12-28T01:39:08;5.13;;;3.63;;
3293;SDS011;1659;51.470;6.770;2023-12-28T01:41:35;4.93;;;3.67;;
3293;SDS011;1659;51.470;6.770;2023-12-28T01:44:02;4.00;;;3.17;;
3293;SDS011;1659;51.470;6.770;2023-12-28T01:46:29;3.87;;;3.50;;
3293;SDS011;1659;51.470;6.770;2023-12-28T01:48:57;6.47;;;4.30;;
3293;SDS011;1659;51.470;6.770;2023-12-28T01:51:24;6.30;;;4.70;;
3293;SDS011;1659;51.470;6.770;2023-12-28T01:53:51;6.50;;;4.40;;
3293;SDS011;1659;51.470;6.770;2023-12-28T01:56:19;7.13;;;4.90;;
3293;SDS011;1659;51.470;6.770;2023-12-28T01:58:46;6.80;;;4.70;;
3293;SDS011;1659;51.470;6.770;2023-12-28T02:01:17;6.20;;;4.80;;
3293;SDS011;1659;51.470;6.770;2023-12-28T02:03:43;13.77;;;6.07;;
3293;SDS011;1659;51.470;6.770;2023-12-28T02:06:12;6.57;;;4.27;;
3293;SDS011;1659;51.470;6.770;2023-12-28T02:08:41;6.97;;;4.57;;
3293;SDS011;1659;51.470;6.770;2023-12-28T02:11:07;8.23;;;4.63;;
3293;SDS011;1659;51.470;6.770;2023-12-28T02:13:34;5.13;;;4.50;;
3293;SDS011;1659;51.470;6.770;2023-12-28T02:16:02;6.70;;;4.40;;
3293;SDS011;1659;51.470;6.770;2023-12-28T02:18:34;7.53;;;4.80;;
3293;SDS011;1659;51.470;6.770;2023-12-28T02:21:06;10.40;;;5.27;;
3293;SDS011;1659;51.470;6.770;2023-12-28T02:23:34;6.20;;;4.40;;
3293;SDS011;1659;51.470;6.770;2023-12-28T02:26:02;13.13;;;4.17;;
3293;SDS011;1659;51.470;6.770;2023-12-28T02:28:28;6.40;;;4.07;;
3293;SDS011;1659;51.470;6.770;2023-12-28T02:30:55;6.93;;;4.40;;
3293;SDS011;1659;51.470;6.770;2023-12-28T02:33:23;5.10;;;4.40;;
3293;SDS011;1659;51.470;6.770;2023-12-28T02:35:55;8.40;;;4.93;;
3293;SDS011;1659;51.470;6.770;2023-12-28T02:38:25;5.00;;;4.50;;
3293;SDS011;1659;51.470;6.770;2023-12-28T02:40:55;5.67;;;4.30;;
3293;SDS011;1659;51.470;6.770;2023-12-28T02:43:24;5.90;;;5.30;;
3293;SDS011;1659;51.470;6.770;2023-12-28T02:45:50;7.20;;;4.70;;
3293;SDS011;1659;51.470;6.770;2023-12-28T02:48:17;6.97;;;4.27;;
3293;SDS011;1659;51.470;6.770;2023-12-28T02:50:44;5.70;;;4.23;;
3293;SDS011;1659;51.470;6.770;2023-12-28T02:53:11;4.40;;;3.60;;
3293;SDS011;1659;51.470;6.770;2023-12-28T02:55:38;9.43;;;4.10;;
3293;SDS011;1659;51.470;6.770;2023-12-28T02:58:05;4.83;;;3.70;;
3293;SDS011;1659;51.470;6.770;2023-12-28T03:00:32;5.27;;;4.43;;
3293;SDS011;1659;51.470;6.770;2023-12-28T03:02:59;5.00;;;4.50;;
3293;SDS011;1659;51.470;6.770;2023-12-28T03:05:25;10.30;;;5.03;;
3293;SDS011;1659;51.470;6.770;2023-12-28T03:07:52;6.73;;;4.83;;
3293;SDS011;1659;51.470;6.770;2023-12-28T03:10:20;8.90;;;5.60;;
3293;SDS011;1659;51.470;6.770;2023-12-28T03:12:47;6.50;;;5.27;;
3293;SDS011;1659;51.470;6.770;2023-12-28T03:15:13;7.93;;;3.60;;
3293;SDS011;1659;51.470;6.770;2023-12-28T03:17:41;5.33;;;3.90;;
3293;SDS011;1659;51.470;6.770;2023-12-28T03:20:08;6.67;;;4.53;;
3293;SDS011;1659;51.470;6.770;2023-12-28T03:22:38;5.03;;;3.70;;
3293;SDS011;1659;51.470;6.770;2023-12-28T03:25:05;7.50;;;4.10;;
3293;SDS011;1659;51.470;6.770;2023-12-28T03:27:32;7.97;;;4.27;;
3293;SDS011;1659;51.470;6.770;2023-12-28T03:29:59;5.43;;;4.23;;
3293;SDS011;1659;51.470;6.770;2023-12-28T03:32:26;4.23;;;3.83;;
3293;SDS011;1659;51.470;6.770;2023-12-28T03:34:54;5.53;;;3.70;;
3293;SDS011;1659;51.470;6.770;2023-12-28T03:37:20;7.73;;;4.00;;
3293;SDS011;1659;51.470;6.770;2023-12-28T03:39:47;4.60;;;4.20;;
3293;SDS011;1659;51.470;6.770;2023-12-28T03:42:13;7.50;;;3.93;;
3293;SDS011;1659;51.470;6.770;2023-12-28T03:44:40;3.90;;;3.50;;
3293;SDS011;1659;51.470;6.770;2023-12-28T03:47:06;6.40;;;4.40;;
3293;SDS011;1659;51.470;6.770;2023-12-28T03:49:32;5.60;;;4.10;;
3293;SDS011;1659;51.470;6.770;2023-12-28T03:52:00;5.40;;;4.27;;
3293;SDS011;1659;51.470;6.770;2023-12-28T03:54:27;4.73;;;4.33;;
3293;SDS011;1659;51.470;6.770;2023-12-28T03:56:53;7.17;;;4.87;;
3293;SDS011;1659;51.470;6.770;2023-12-28T03:59:20;9.40;;;5.00;;
3293;SDS011;1659;51.470;6.770;2023-12-28T04:01:46;6.97;;;4.60;;
3293;SDS011;1659;51.470;6.770;2023-12-28T04:04:13;7.47;;;5.07;;
3293;SDS011;1659;51.470;6.770;2023-12-28T04:06:40;13.33;;;5.80;;
3293;SDS011;1659;51.470;6.770;2023-12-28T04:09:09;9.10;;;5.60;;
3293;SDS011;1659;51.470;6.770;2023-12-28T04:11:37;6.73;;;5.13;;
3293;SDS011;1659;51.470;6.770;2023-12-28T04:14:04;11.17;;;6.40;;
3293;SDS011;1659;51.470;6.770;2023-12-28T04:16:30;8.70;;;5.27;;
3293;SDS011;1659;51.470;6.770;2023-12-28T04:18:57;7.80;;;5.43;;
3293;SDS011;1659;51.470;6.770;2023-12-28T04:21:23;6.00;;;5.00;;
3293;SDS011;1659;51.470;6.770;2023-12-28T04:23:50;6.10;;;5.00;;
3293;SDS011;1659;51.470;6.770;2023-12-28T04:26:19;6.90;;;4.77;;
3293;SDS011;1659;51.470;6.770;2023-12-28T04:28:45;4.77;;;4.30;;
3293;SDS011;1659;51.470;6.770;2023-12-28T04:31:12;10.57;;;5.80;;
3293;SDS011;1659;51.470;6.770;2023-12-28T04:33:39;8.60;;;4.93;;
3293;SDS011;1659;51.470;6.770;2023-12-28T04:36:05;9.53;;;5.53;;
3293;SDS011;1659;51.470;6.770;2023-12-28T04:38:32;14.53;;;6.07;;
3293;SDS011;1659;51.470;6.770;2023-12-28T04:40:59;7.57;;;4.40;;
3293;SDS011;1659;51.470;6.770;2023-12-28T04:43:27;6.83;;;4.97;;
3293;SDS011;1659;51.470;6.770;2023-12-28T04:45:53;5.70;;;4.50;;
3293;SDS011;1659;51.470;6.770;2023-12-28T04:48:20;6.00;;;4.27;;
3293;SDS011;1659;51.470;6.770;2023-12-28T04:50:48;5.87;;;4.60;;
3293;SDS011;1659;51.470;6.770;2023-12-28T04:53:15;6.00;;;4.23;;
3293;SDS011;1659;51.470;6.770;2023-12-28T04:55:42;7.87;;;5.00;;
3293;SDS011;1659;51.470;6.770;2023-12-28T04:58:09;5.20;;;4.40;;
3293;SDS011;1659;51.470;6.770;2023-12-28T05:00:38;5.80;;;4.50;;
3293;SDS011;1659;51.470;6.770;2023-12-28T05:03:04;8.17;;;5.30;;
3293;SDS011;1659;51.470;6.770;2023-12-28T05:05:31;7.97;;;4.47;;
3293;SDS011;1659;51.470;6.770;2023-12-28T05:07:57;7.90;;;4.70;;
3293;SDS011;1659;51.470;6.770;2023-12-28T05:10:24;6.10;;;5.00;;
3293;SDS011;1659;51.470;6.770;2023-12-28T05:12:51;8.83;;;4.47;;
3293;SDS011;1659;51.470;6.770;2023-12-28T05:15:17;7.83;;;5.00;;
3293;SDS011;1659;51.470;6.770;2023-12-28T05:17:46;5.53;;;4.47;;
3293;SDS011;1659;51.470;6.770;2023-12-28T05:20:12;7.83;;;4.33;;
3293;SDS011;1659;51.470;6.770;2023-12-28T05:22:39;6.80;;;4.03;;
3293;SDS011;1659;51.470;6.770;2023-12-28T05:25:05;4.30;;;3.70;;
3293;SDS011;1659;51.470;6.770;2023-12-28T05:27:32;7.53;;;4.27;;
3293;SDS011;1659;51.470;6.770;2023-12-28T05:29:58;8.37;;;4.50;;
3293;SDS011;1659;51.470;6.770;2023-12-28T05:32:25;5.10;;;4.50;;
3293;SDS011;1659;51.470;6.770;2023-12-28T05:34:53;5.40;;;3.43;;
3293;SDS011;1659;51.470;6.770;2023-12-28T05:37:19;5.33;;;3.97;;
3293;SDS011;1659;51.470;6.770;2023-12-28T05:39:46;12.67;;;4.37;;
3293;SDS011;1659;51.470;6.770;2023-12-28T05:42:12;6.63;;;4.27;;
3293;SDS011;1659;51.470;6.770;2023-12-28T05:44:39;4.83;;;3.93;;
3293;SDS011;1659;51.470;6.770;2023-12-28T05:47:06;5.10;;;3.87;;
3293;SDS011;1659;51.470;6.770;2023-12-28T05:49:32;6.00;;;4.50;;
3293;SDS011;1659;51.470;6.770;2023-12-28T05:52:00;8.17;;;3.80;;
3293;SDS011;1659;51.470;6.770;2023-12-28T05:54:27;7.60;;;3.50;;
3293;SDS011;1659;51.470;6.770;2023-12-28T05:56:53;5.70;;;4.57;;
3293;SDS011;1659;51.470;6.770;2023-12-28T05:59:20;6.33;;;3.50;;
3293;SDS011;1659;51.470;6.770;2023-12-28T06:01:47;6.40;;;3.60;;
3293;SDS011;1659;51.470;6.770;2023-12-28T06:04:14;3.80;;;3.33;;
3293;SDS011;1659;51.470;6.770;2023-12-28T06:06:40;10.33;;;3.50;;
3293;SDS011;1659;51.470;6.770;2023-12-28T06:09:08;3.10;;;2.90;;
3293;SDS011;1659;51.470;6.770;2023-12-28T06:11:35;5.33;;;4.00;;
3293;SDS011;1659;51.470;6.770;2023-12-28T06:14:02;12.03;;;3.80;;
3293;SDS011;1659;51.470;6.770;2023-12-28T06:16:28;5.07;;;3.43;;
3293;SDS011;1659;51.470;6.770;2023-12-28T06:18:57;4.43;;;3.40;;
3293;SDS011;1659;51.470;6.770;2023-12-28T06:21:24;3.43;;;3.10;;
3293;SDS011;1659;51.470;6.770;2023-12-28T06:23:51;5.57;;;4.07;;
3293;SDS011;1659;51.470;6.770;2023-12-28T06:26:19;5.33;;;3.50;;
3293;SDS011;1659;51.470;6.770;2023-12-28T06:28:45;3.90;;;3.50;;
3293;SDS011;1659;51.470;6.770;2023-12-28T06:31:12;8.20;;;4.23;;
3293;SDS011;1659;51.470;6.770;2023-12-28T06:33:38;6.77;;;3.90;;
3293;SDS011;1659;51.470;6.770;2023-12-28T06:36:05;6.00;;;4.00;;
3293;SDS011;1659;51.470;6.770;2023-12-28T06:38:32;12.60;;;4.87;;
3293;SDS011;1659;51.470;6.770;2023-12-28T06:40:59;6.63;;;3.73;;
3293;SDS011;1659;51.470;6.770;2023-12-28T06:43:26;6.80;;;3.97;;
3293;SDS011;1659;51.470;6.770;2023-12-28T06:45:53;6.70;;;4.20;;
3293;SDS011;1659;51.470;6.770;2023-12-28T06:48:20;6.00;;;4.20;;
3293;SDS011;1659;51.470;6.770;2023-12-28T06:50:46;17.80;;;4.80;;
3293;SDS011;1659;51.470;6.770;2023-12-28T06:53:13;5.20;;;3.87;;
3293;SDS011;1659;51.470;6.770;2023-12-28T06:55:39;10.07;;;4.20;;
3293;SDS011;1659;51.470;6.770;2023-12-28T06:58:06;11.80;;;5.20;;
3293;SDS011;1659;51.470;6.770;2023-12-28T07:00:34;13.00;;;4.03;;
3293;SDS011;1659;51.470;6.770;2023-12-28T07:03:00;8.63;;;4.07;;
3293;SDS011;1659;51.470;6.770;2023-12-28T07:05:27;5.03;;;4.13;;
3293;SDS011;1659;51.470;6.770;2023-12-28T07:07:53;11.07;;;3.70;;
3293;SDS011;1659;51.470;6.770;2023-12-28T07:10:20;6.77;;;4.37;;
3293;SDS011;1659;51.470;6.770;2023-12-28T07:12:46;4.70;;;3.80;;
3293;SDS011;1659;51.470;6.770;2023-12-28T07:15:13;5.23;;;3.20;;
3293;SDS011;1659;51.470;6.770;2023-12-28T07:17:41;7.73;;;4.10;;
3293;SDS011;1659;51.470;6.770;2023-12-28T07:20:07;15.43;;;4.57;;
3293;SDS011;1659;51.470;6.770;2023-12-28T07:22:35;7.03;;;3.40;;
3293;SDS011;1659;51.470;6.770;2023-12-28T07:25:02;6.53;;;3.83;;
3293;SDS011;1659;51.470;6.770;2023-12-28T07:27:30;7.63;;;2.83;;
3293;SDS011;1659;51.470;6.770;2023-12-28T07:29:56;10.47;;;3.40;;
3293;SDS011;1659;51.470;6.770;2023-12-28T07:32:23;5.17;;;3.07;;
3293;SDS011;1659;51.470;6.770;2023-12-28T07:34:52;5.63;;;3.87;;
3293;SDS011;1659;51.470;6.770;2023-12-28T07:37:19;3.70;;;3.17;;
3293;SDS011;1659;51.470;6.770;2023-12-28T07:39:46;7.33;;;3.60;;
3293;SDS011;1659;51.470;6.770;2023-12-28T07:42:12;10.17;;;3.93;;
3293;SDS011;1659;51.470;6.770;2023-12-28T07:44:40;3.00;;;2.80;;
3293;SDS011;1659;51.470;6.770;2023-12-28T07:47:06;8.57;;;3.10;;
3293;SDS011;1659;51.470;6.770;2023-12-28T07:49:33;6.57;;;3.33;;
3293;SDS011;1659;51.470;6.770;2023-12-28T07:52:01;8.07;;;2.83;;
3293;SDS011;1659;51.470;6.770;2023-12-28T07:54:27;5.67;;;3.30;;
3293;SDS011;1659;51.470;6.770;2023-12-28T07:56:54;8.63;;;2.33;;
3293;SDS011;1659;51.470;6.770;2023-12-28T07:59:20;8.20;;;3.27;;
3293;SDS011;1659;51.470;6.770;2023-12-28T08:01:47;5.70;;;2.50;;
3293;SDS011;1659;51.470;6.770;2023-12-28T08:04:14;5.30;;;2.90;;
3293;SDS011;1659;51.470;6.770;2023-12-28T08:06:40;6.17;;;2.90;;
3293;SDS011;1659;51.470;6.770;2023-12-28T08:09:08;13.07;;;2.73;;
3293;SDS011;1659;51.470;6.770;2023-12-28T08:11:35;6.40;;;2.80;;
3293;SDS011;1659;51.470;6.770;2023-12-28T08:14:01;7.40;;;3.40;;
3293;SDS011;1659;51.470;6.770;2023-12-28T08:16:28;6.40;;;3.00;;
3293;SDS011;1659;51.470;6.770;2023-12-28T08:18:54;9.90;;;3.07;;
3293;SDS011;1659;51.470;6.770;2023-12-28T08:21:21;7.10;;;3.13;;
3293;SDS011;1659;51.470;6.770;2023-12-28T08:23:47;8.17;;;3.53;;
3293;SDS011;1659;51.470;6.770;2023-12-28T08:26:15;6.73;;;2.93;;
3293;SDS011;1659;51.470;6.770;2023-12-28T08:28:42;8.10;;;2.87;;
3293;SDS011;1659;51.470;6.770;2023-12-28T08:31:09;8.10;;;3.10;;
3293;SDS011;1659;51.470;6.770;2023-12-28T08:33:35;6.33;;;2.90;;
3293;SDS011;1659;51.470;6.770;2023-12-28T08:36:04;5.03;;;2.30;;
3293;SDS011;1659;51.470;6.770;2023-12-28T08:38:31;14.57;;;3.40;;
3293;SDS011;1659;51.470;6.770;2023-12-28T08:40:57;10.30;;;3.97;;
3293;SDS011;1659;51.470;6.770;2023-12-28T08:43:25;10.73;;;3.50;;
3293;SDS011;1659;51.470;6.770;2023-12-28T08:45:53;4.80;;;2.80;;
3293;SDS011;1659;51.470;6.770;2023-12-28T08:48:20;13.10;;;3.80;;
3293;SDS011;1659;51.470;6.770;2023-12-28T08:50:49;9.13;;;3.10;;
3293;SDS011;1659;51.470;6.770;2023-12-28T08:53:15;11.73;;;4.20;;
3293;SDS011;1659;51.470;6.770;2023-12-28T08:55:42;7.87;;;2.80;;
3293;SDS011;1659;51.470;6.770;2023-12-28T08:58:10;6.47;;;2.83;;
3293;SDS011;1659;51.470;6.770;2023-12-28T09:00:38;8.10;;;3.23;;
3293;SDS011;1659;51.470;6.770;2023-12-28T09:03:04;13.77;;;3.70;;
3293;SDS011;1659;51.470;6.770;2023-12-28T09:05:31;9.43;;;3.30;;
3293;SDS011;1659;51.470;6.770;2023-12-28T09:07:57;5.50;;;2.70;;
3293;SDS011;1659;51.470;6.770;2023-12-28T09:10:24;12.97;;;3.50;;
3293;SDS011;1659;51.470;6.770;2023-12-28T09:12:50;10.57;;;3.10;;
3293;SDS011;1659;51.470;6.770;2023-12-28T09:15:17;5.70;;;2.60;;
3293;SDS011;1659;51.470;6.770;2023-12-28T09:17:45;4.57;;;2.90;;
3293;SDS011;1659;51.470;6.770;2023-12-28T09:20:12;12.40;;;2.90;;
3293;SDS011;1659;51.470;6.770;2023-12-28T09:22:38;13.07;;;3.13;;
3293;SDS011;1659;51.470;6.770;2023-12-28T09:25:05;15.13;;;3.70;;
3293;SDS011;1659;51.470;6.770;2023-12-28T09:27:32;6.03;;;3.50;;
3293;SDS011;1659;51.470;6.770;2023-12-28T09:29:58;7.37;;;3.00;;
3293;SDS011;1659;51.470;6.770;2023-12-28T09:32:25;4.67;;;3.40;;
3293;SDS011;1659;51.470;6.770;2023-12-28T09:34:53;7.37;;;3.00;;
3293;SDS011;1659;51.470;6.770;2023-12-28T09:37:20;6.30;;;2.90;;
3293;SDS011;1659;51.470;6.770;2023-12-28T09:39:46;13.37;;;3.57;;
3293;SDS011;1659;51.470;6.770;2023-12-28T09:42:16;3.93;;;3.20;;
3293;SDS011;1659;51.470;6.770;2023-12-28T09:44:49;6.53;;;3.00;;
3293;SDS011;1659;51.470;6.770;2023-12-28T09:47:16;7.47;;;2.63;;
3293;SDS011;1659;51.470;6.770;2023-12-28T09:49:42;15.23;;;3.23;;
3293;SDS011;1659;51.470;6.770;2023-12-28T09:52:11;10.20;;;3.30;;
3293;SDS011;1659;51.470;6.770;2023-12-28T09:54:38;11.63;;;3.70;;
3293;SDS011;1659;51.470;6.770;2023-12-28T09:57:04;9.03;;;3.37;;
3293;SDS011;1659;51.470;6.770;2023-12-28T09:59:31;9.03;;;3.23;;
3293;SDS011;1659;51.470;6.770;2023-12-28T10:01:58;5.93;;;3.70;;
3293;SDS011;1659;51.470;6.770;2023-12-28T10:04:27;10.90;;;3.43;;
3293;SDS011;1659;51.470;6.770;2023-12-28T10:06:55;5.73;;;4.40;;
3293;SDS011;1659;51.470;6.770;2023-12-28T10:09:22;9.50;;;3.20;;
3293;SDS011;1659;51.470;6.770;2023-12-28T10:11:49;12.87;;;2.90;;
3293;SDS011;1659;51.470;6.770;2023-12-28T10:14:16;5.10;;;3.20;;
3293;SDS011;1659;51.470;6.770;2023-12-28T10:16:43;12.90;;;3.70;;
3293;SDS011;1659;51.470;6.770;2023-12-28T10:19:09;10.77;;;2.90;;
3293;SDS011;1659;51.470;6.770;2023-12-28T10:21:36;7.87;;;3.17;;
3293;SDS011;1659;51.470;6.770;2023-12-28T10:24:05;7.47;;;3.33;;
3293;SDS011;1659;51.470;6.770;2023-12-28T10:26:33;12.93;;;3.70;;
3293;SDS011;1659;51.470;6.770;2023-12-28T10:29:01;8.80;;;3.17;;
3293;SDS011;1659;51.470;6.770;2023-12-28T10:31:28;8.73;;;2.80;;
3293;SDS011;1659;51.470;6.770;2023-12-28T10:33:57;5.37;;;3.63;;
3293;SDS011;1659;51.470;6.770;2023-12-28T10:36:24;6.77;;;3.00;;
3293;SDS011;1659;51.470;6.770;2023-12-28T10:38:53;10.43;;;2.60;;
3293;SDS011;1659;51.470;6.770;2023-12-28T10:41:20;7.50;;;2.97;;
3293;SDS011;1659;51.470;6.770;2023-12-28T10:43:51;11.40;;;2.70;;
3293;SDS011;1659;51.470;6.770;2023-12-28T10:46:30;11.20;;;3.30;;
3293;SDS011;1659;51.470;6.770;2023-12-28T10:48:58;4.73;;;2.43;;
3293;SDS011;1659;51.470;6.770;2023-12-28T10:51:30;7.07;;;2.87;;
3293;SDS011;1659;51.470;6.770;2023-12-28T10:54:04;7.60;;;3.20;;
3293;SDS011;1659;51.470;6.770;2023-12-28T10:56:41;12.50;;;3.30;;
3293;SDS011;1659;51.470;6.770;2023-12-28T10:59:15;10.90;;;2.80;;
3293;SDS011;1659;51.470;6.770;2023-12-28T11:01:49;9.53;;;2.90;;
3293;SDS011;1659;51.470;6.770;2023-12-28T11:04:23;6.73;;;3.50;;
3293;SDS011;1659;51.470;6.770;2023-12-28T11:06:53;5.00;;;3.30;;
3293;SDS011;1659;51.470;6.770;2023-12-28T11:09:20;12.30;;;3.20;;
3293;SDS011;1659;51.470;6.770;2023-12-28T11:11:48;8.27;;;3.47;;
3293;SDS011;1659;51.470;6.770;2023-12-28T11:14:18;8.40;;;2.67;;
3293;SDS011;1659;51.470;6.770;2023-12-28T11:16:44;12.87;;;2.90;;
3293;SDS011;1659;51.470;6.770;2023-12-28T11:19:11;5.90;;;2.63;;
3293;SDS011;1659;51.470;6.770;2023-12-28T11:21:39;6.27;;;3.10;;
3293;SDS011;1659;51.470;6.770;2023-12-28T11:24:06;11.00;;;2.60;;
3293;SDS011;1659;51.470;6.770;2023-12-28T11:26:33;7.00;;;3.60;;
3293;SDS011;1659;51.470;6.770;2023-12-28T11:29:00;6.10;;;2.67;;
3293;SDS011;1659;51.470;6.770;2023-12-28T11:31:29;9.73;;;3.67;;
3293;SDS011;1659;51.470;6.770;2023-12-28T11:33:59;9.00;;;3.97;;
3293;SDS011;1659;51.470;6.770;2023-12-28T11:36:26;10.90;;;3.50;;
3293;SDS011;1659;51.470;6.770;2023-12-28T11:39:01;9.60;;;3.60;;
3293;SDS011;1659;51.470;6.770;2023-12-28T11:41:30;6.63;;;3.43;;
3293;SDS011;1659;51.470;6.770;2023-12-28T11:43:57;10.00;;;2.93;;
3293;SDS011;1659;51.470;6.770;2023-12-28T11:46:31;9.63;;;2.60;;
3293;SDS011;1659;51.470;6.770;2023-12-28T11:49:04;7.07;;;2.53;;
3293;SDS011;1659;51.470;6.770;2023-12-28T11:51:32;10.23;;;3.33;;
3293;SDS011;1659;51.470;6.770;2023-12-28T11:54:00;7.40;;;2.43;;
3293;SDS011;1659;51.470;6.770;2023-12-28T11:56:28;6.10;;;2.60;;
3293;SDS011;1659;51.470;6.770;2023-12-28T11:58:55;7.97;;;3.37;;
3293;SDS011;1659;51.470;6.770;2023-12-28T12:01:21;2.93;;;2.50;;
3293;SDS011;1659;51.470;6.770;2023-12-28T12:03:49;9.50;;;2.73;;
3293;SDS011;1659;51.470;6.770;2023-12-28T12:06:16;8.73;;;2.43;;
3293;SDS011;1659;51.470;6.770;2023-12-28T12:08:44;5.53;;;2.70;;
3293;SDS011;1659;51.470;6.770;2023-12-28T12:11:11;4.30;;;2.40;;
3293;SDS011;1659;51.470;6.770;2023-12-28T12:13:37;6.43;;;2.93;;
3293;SDS011;1659;51.470;6.770;2023-12-28T12:16:05;16.70;;;3.40;;
3293;SDS011;1659;51.470;6.770;2023-12-28T12:18:32;8.53;;;3.43;;
3293;SDS011;1659;51.470;6.770;2023-12-28T12:21:00;6.90;;;2.87;;
3293;SDS011;1659;51.470;6.770;2023-12-28T12:23:28;5.57;;;3.10;;
3293;SDS011;1659;51.470;6.770;2023-12-28T12:25:54;9.53;;;2.50;;
3293;SDS011;1659;51.470;6.770;2023-12-28T12:28:21;13.80;;;2.80;;
3293;SDS011;1659;51.470;6.770;2023-12-28T12:30:51;6.97;;;2.90;;
3293;SDS011;1659;51.470;6.770;2023-12-28T12:33:19;8.70;;;2.67;;
3293;SDS011;1659;51.470;6.770;2023-12-28T12:35:46;7.60;;;3.30;;
3293;SDS011;1659;51.470;6.770;2023-12-28T12:38:13;6.53;;;2.33;;
3293;SDS011;1659;51.470;6.770;2023-12-28T12:40:40;8.53;;;2.87;;
3293;SDS011;1659;51.470;6.770;2023-12-28T12:43:07;6.47;;;2.43;;
3293;SDS011;1659;51.470;6.770;2023-12-28T12:45:34;9.83;;;3.07;;
3293;SDS011;1659;51.470;6.770;2023-12-28T12:48:01;5.63;;;2.57;;
3293;SDS011;1659;51.470;6.770;2023-12-28T12:50:28;14.90;;;2.97;;
3293;SDS011;1659;51.470;6.770;2023-12-28T12:52:58;7.13;;;2.57;;
3293;SDS011;1659;51.470;6.770;2023-12-28T12:55:26;12.23;;;3.20;;
3293;SDS011;1659;51.470;6.770;2023-12-28T12:57:53;11.63;;;3.50;;
3293;SDS011;1659;51.470;6.770;2023-12-28T13:00:21;14.80;;;4.00;;
3293;SDS011;1659;51.470;6.770;2023-12-28T13:02:49;12.73;;;2.60;;
3293;SDS011;1659;51.470;6.770;2023-12-28T13:05:15;10.70;;;3.40;;
3293;SDS011;1659;51.470;6.770;2023-12-28T13:07:43;6.10;;;2.83;;
3293;SDS011;1659;51.470;6.770;2023-12-28T13:10:10;6.73;;;2.77;;
3293;SDS011;1659;51.470;6.770;2023-12-28T13:12:38;9.87;;;2.67;;
3293;SDS011;1659;51.470;6.770;2023-12-28T13:15:05;8.00;;;3.50;;
3293;SDS011;1659;51.470;6.770;2023-12-28T13:17:34;18.87;;;3.93;;
3293;SDS011;1659;51.470;6.770;2023-12-28T13:20:01;8.90;;;3.57;;
3293;SDS011;1659;51.470;6.770;2023-12-28T13:22:28;4.70;;;3.00;;
3293;SDS011;1659;51.470;6.770;2023-12-28T13:24:55;12.37;;;3.40;;
3293;SDS011;1659;51.470;6.770;2023-12-28T13:27:22;12.53;;;3.60;;
3293;SDS011;1659;51.470;6.770;2023-12-28T13:29:50;7.50;;;3.27;;
3293;SDS011;1659;51.470;6.770;2023-12-28T13:32:17;6.83;;;2.70;;
3293;SDS011;1659;51.470;6.770;2023-12-28T13:34:43;8.70;;;3.50;;
3293;SDS011;1659;51.470;6.770;2023-12-28T13:37:10;6.90;;;3.23;;
3293;SDS011;1659;51.470;6.770;2023-12-28T13:39:36;13.50;;;3.50;;
3293;SDS011;1659;51.470;6.770;2023-12-28T13:42:04;13.67;;;3.47;;
3293;SDS011;1659;51.470;6.770;2023-12-28T13:44:32;8.87;;;2.90;;
3293;SDS011;1659;51.470;6.770;2023-12-28T13:47:00;8.07;;;2.87;;
3293;SDS011;1659;51.470;6.770;2023-12-28T13:49:26;6.50;;;2.80;;
3293;SDS011;1659;51.470;6.770;2023-12-28T13:51:53;12.00;;;3.17;;
3293;SDS011;1659;51.470;6.770;2023-12-28T13:54:19;11.30;;;4.47;;
3293;SDS011;1659;51.470;6.770;2023-12-28T13:56:46;9.80;;;2.80;;
3293;SDS011;1659;51.470;6.770;2023-12-28T13:59:13;7.20;;;2.43;;
3293;SDS011;1659;51.470;6.770;2023-12-28T14:01:39;8.63;;;2.50;;
3293;SDS011;1659;51.470;6.770;2023-12-28T14:04:08;5.63;;;2.53;;
3293;SDS011;1659;51.470;6.770;2023-12-28T14:06:34;8.80;;;2.23;;
3293;SDS011;1659;51.470;6.770;2023-12-28T14:09:01;17.43;;;3.93;;
3293;SDS011;1659;51.470;6.770;2023-12-28T14:11:27;8.33;;;3.70;;
3293;SDS011;1659;51.470;6.770;2023-12-28T14:13:54;6.67;;;3.00;;
3293;SDS011;1659;51.470;6.770;2023-12-28T14:16:20;2.87;;;2.30;;
3293;SDS011;1659;51.470;6.770;2023-12-28T14:18:47;8.00;;;3.40;;
3293;SDS011;1659;51.470;6.770;2023-12-28T14:21:16;8.90;;;2.57;;
3293;SDS011;1659;51.470;6.770;2023-12-28T14:23:43;4.57;;;3.07;;
3293;SDS011;1659;51.470;6.770;2023-12-28T14:26:11;9.23;;;3.50;;
3293;SDS011;1659;51.470;6.770;2023-12-28T14:28:40;7.27;;;3.10;;
3293;SDS011;1659;51.470;6.770;2023-12-28T14:31:08;12.33;;;3.33;;
3293;SDS011;1659;51.470;6.770;2023-12-28T14:33:35;11.83;;;2.87;;
3293;SDS011;1659;51.470;6.770;2023-12-28T14:36:04;7.10;;;2.90;;
3293;SDS011;1659;51.470;6.770;2023-12-28T14:38:36;7.30;;;2.70;;
3293;SDS011;1659;51.470;6.770;2023-12-28T14:41:03;6.20;;;2.80;;
3293;SDS011;1659;51.470;6.770;2023-12-28T14:43:29;6.50;;;2.43;;
3293;SDS011;1659;51.470;6.770;2023-12-28T14:45:56;10.50;;;2.80;;
3293;SDS011;1659;51.470;6.770;2023-12-28T14:48:22;9.43;;;2.70;;
3293;SDS011;1659;51.470;6.770;2023-12-28T14:50:49;13.00;;;3.03;;
3293;SDS011;1659;51.470;6.770;2023-12-28T14:53:15;5.53;;;2.87;;
3293;SDS011;1659;51.470;6.770;2023-12-28T14:55:44;15.37;;;3.03;;
3293;SDS011;1659;51.470;6.770;2023-12-28T14:58:10;6.20;;;2.80;;
3293;SDS011;1659;51.470;6.770;2023-12-28T15:00:37;4.17;;;2.57;;
3293;SDS011;1659;51.470;6.770;2023-12-28T15:03:04;6.17;;;2.80;;
3293;SDS011;1659;51.470;6.770;2023-12-28T15:05:30;9.27;;;2.83;;
3293;SDS011;1659;51.470;6.770;2023-12-28T15:07:57;8.37;;;3.13;;
3293;SDS011;1659;51.470;6.770;2023-12-28T15:10:24;13.13;;;2.87;;
3293;SDS011;1659;51.470;6.770;2023-12-28T15:12:52;7.57;;;2.67;;